Time;durP1;ratioP1;P1;durP2;ratioP2;P2;SDS_P1;SDS_P2;PMS_P1;PMS_P2;Temp;Humidity;BMP_temperature;BMP_pressure;BME280_temperature;BME280_humidity;BME280_pressure;Samples;Min_cycle;Max_cycle;Signal;HPM_P1;HPM_P2
2022/08/20 00:00:55;;;;;;;9.35;1.52;;;14.60;85.30;;;;;;4896137;29;20028;-70
2022/08/20 00:03:27;;;;;;;3.53;1.23;;;14.70;84.50;;;;;;4893700;29;20023;-70
2022/08/20 00:06:01;;;;;;;4.00;1.73;;;14.90;84.90;;;;;;4895464;29;20070;-69
2022/08/20 00:08:29;;;;;;;4.43;0.98;;;15.00;83.80;;;;;;4893772;29;20076;-70
2022/08/20 00:10:58;;;;;;;4.68;1.77;;;15.10;82.90;;;;;;4895941;29;20099;-71
2022/08/20 00:13:38;;;;;;;5.57;1.30;;;15.10;83.60;;;;;;4895981;29;20171;-69
2022/08/20 00:16:06;;;;;;;3.58;0.98;;;15.20;83.10;;;;;;4893617;29;20087;-70
2022/08/20 00:18:37;;;;;;;4.78;1.27;;;15.30;83.40;;;;;;4895044;29;20025;-70
2022/08/20 00:21:10;;;;;;;4.10;1.30;;;15.40;83.20;;;;;;4895777;29;20437;-73
2022/08/20 00:23:40;;;;;;;5.00;1.02;;;15.60;82.90;;;;;;4892961;29;20044;-72
2022/08/20 00:26:09;;;;;;;3.05;1.25;;;15.70;82.00;;;;;;4895266;29;20067;-70
2022/08/20 00:28:37;;;;;;;8.32;1.40;;;15.90;81.90;;;;;;4894415;29;20063;-70
2022/08/20 00:31:10;;;;;;;7.38;1.55;;;15.80;81.20;;;;;;4895220;29;20553;-69
2022/08/20 00:33:37;;;;;;;4.97;0.93;;;15.90;80.80;;;;;;4895074;29;20529;-68
2022/08/20 00:36:08;;;;;;;3.40;0.95;;;15.90;81.80;;;;;;4883484;29;20433;-70
2022/08/20 00:38:37;;;;;;;3.38;1.08;;;15.90;81.20;;;;;;4895689;29;20032;-70
2022/08/20 00:41:06;;;;;;;6.55;1.20;;;15.90;80.70;;;;;;4896277;29;20041;-69
2022/08/20 00:43:42;;;;;;;8.43;2.05;;;16.00;80.70;;;;;;4894455;29;20052;-69
2022/08/20 00:46:10;;;;;;;4.97;1.88;;;16.00;81.30;;;;;;4896040;29;20417;-71
2022/08/20 00:48:41;;;;;;;5.15;1.48;;;16.20;80.30;;;;;;4896307;29;20115;-71
2022/08/20 00:51:28;;;;;;;3.03;1.00;;;16.20;80.00;;;;;;4896182;29;20047;-69
2022/08/20 00:54:04;;;;;;;7.57;1.98;;;16.20;79.30;;;;;;4896513;29;20032;-70
2022/08/20 00:56:33;;;;;;;10.15;1.55;;;16.20;80.10;;;;;;4896576;29;20029;-70
2022/08/20 00:59:02;;;;;;;6.45;1.75;;;16.20;80.40;;;;;;4896067;29;20390;-71
2022/08/20 01:01:32;;;;;;;3.15;1.35;;;16.30;79.90;;;;;;4895989;29;20378;-70
2022/08/20 01:04:00;;;;;;;5.25;1.30;;;16.50;79.70;;;;;;4896417;29;20021;-70
2022/08/20 01:06:28;;;;;;;6.70;1.38;;;16.60;79.40;;;;;;4896168;29;20029;-72
2022/08/20 01:08:55;;;;;;;3.80;1.30;;;16.70;79.30;;;;;;4896017;29;20024;-72
2022/08/20 01:11:32;;;;;;;3.53;1.25;;;16.90;80.00;;;;;;4895831;29;20389;-70
2022/08/20 01:14:11;;;;;;;6.53;1.75;;;16.90;78.80;;;;;;4895889;29;20508;-72
2022/08/20 01:16:39;;;;;;;3.47;1.00;;;16.90;78.60;;;;;;4895511;29;20049;-69
2022/08/20 01:19:09;;;;;;;6.57;1.77;;;16.90;78.20;;;;;;4895985;29;20021;-69
2022/08/20 01:21:37;;;;;;;6.53;1.42;;;16.80;78.10;;;;;;4896432;29;20020;-69
2022/08/20 01:24:05;;;;;;;4.10;1.20;;;16.80;77.90;;;;;;4895507;29;20025;-75
2022/08/20 01:26:42;;;;;;;3.75;1.13;;;16.80;78.20;;;;;;4895335;29;20033;-75
2022/08/20 01:29:22;;;;;;;8.27;1.02;;;16.70;77.80;;;;;;4895767;29;20060;-72
2022/08/20 01:31:49;;;;;;;3.42;0.90;;;16.70;78.00;;;;;;4895643;29;20104;-69
2022/08/20 01:34:21;;;;;;;4.05;1.02;;;16.60;77.80;;;;;;4895900;29;20379;-69
2022/08/20 01:36:51;;;;;;;8.40;1.75;;;16.60;77.60;;;;;;4895808;29;20029;-71
2022/08/20 01:39:25;;;;;;;6.65;1.38;;;16.70;78.70;;;;;;4895581;29;20037;-69
2022/08/20 01:42:02;;;;;;;5.65;1.30;;;16.70;77.30;;;;;;4893806;29;20055;-73
2022/08/20 01:44:29;;;;;;;2.85;1.10;;;16.80;78.60;;;;;;4895378;29;20040;-73
2022/08/20 01:47:07;;;;;;;5.63;1.55;;;16.80;78.40;;;;;;4895833;29;20103;-74
2022/08/20 01:49:35;;;;;;;3.50;1.23;;;16.90;77.40;;;;;;4896425;29;20115;-73
2022/08/20 01:52:07;;;;;;;3.72;1.20;;;16.90;77.30;;;;;;4897417;29;20029;-75
2022/08/20 01:54:34;;;;;;;4.03;1.45;;;16.80;77.00;;;;;;4898952;29;20029;-70
2022/08/20 01:57:11;;;;;;;4.55;1.10;;;16.80;77.80;;;;;;4899005;29;20088;-72
2022/08/20 01:59:43;;;;;;;5.82;1.25;;;16.80;78.20;;;;;;4899432;29;20120;-73
2022/08/20 02:02:11;;;;;;;5.57;1.40;;;16.80;77.10;;;;;;4898088;29;20048;-74
2022/08/20 02:04:39;;;;;;;6.13;1.80;;;16.70;78.00;;;;;;4898716;29;20508;-72
2022/08/20 02:07:13;;;;;;;4.15;0.90;;;16.60;78.00;;;;;;4897920;29;20033;-71
2022/08/20 02:09:40;;;;;;;6.03;1.30;;;16.50;78.20;;;;;;4897279;29;20116;-71
2022/08/20 02:12:09;;;;;;;6.13;1.67;;;16.40;78.50;;;;;;4898540;29;20073;-70
2022/08/20 02:14:45;;;;;;;4.95;1.15;;;16.40;78.60;;;;;;4898182;29;20043;-73
2022/08/20 02:17:13;;;;;;;5.35;1.30;;;16.50;79.40;;;;;;4897462;29;20622;-69
2022/08/20 02:19:53;;;;;;;4.32;1.25;;;16.40;77.60;;;;;;4897840;29;20216;-69
2022/08/20 02:22:46;;;;;;;4.97;1.33;;;16.40;78.70;;;;;;4880321;29;20037;-70
2022/08/20 02:25:14;;;;;;;6.28;1.85;;;16.40;78.30;;;;;;4879356;29;20021;-70
2022/08/20 02:27:44;;;;;;;6.10;1.25;;;16.30;78.90;;;;;;4881456;29;20085;-75
2022/08/20 02:30:21;;;;;;;4.60;1.00;;;16.40;78.40;;;;;;4896774;29;20032;-70
2022/08/20 02:32:49;;;;;;;6.43;1.30;;;16.40;78.70;;;;;;4897297;29;20017;-69
2022/08/20 02:35:17;;;;;;;3.80;1.10;;;16.40;79.30;;;;;;4894751;29;20073;-69
2022/08/20 02:37:45;;;;;;;6.43;1.33;;;16.40;80.00;;;;;;4897827;29;20068;-72
2022/08/20 02:40:16;;;;;;;5.05;1.20;;;16.40;79.90;;;;;;4897421;29;20522;-68
2022/08/20 02:42:43;;;;;;;4.30;1.23;;;16.30;80.00;;;;;;4897127;29;20016;-71
2022/08/20 02:45:14;;;;;;;3.25;0.95;;;16.40;80.20;;;;;;4896419;29;20035;-73
2022/08/20 02:47:45;;;;;;;4.05;1.48;;;16.30;79.20;;;;;;4894930;29;20430;-69
2022/08/20 02:50:19;;;;;;;5.57;1.27;;;16.30;79.20;;;;;;4898087;29;20385;-70
2022/08/20 02:52:47;;;;;;;3.25;1.10;;;16.30;79.70;;;;;;4896722;29;20032;-69
2022/08/20 02:55:15;;;;;;;6.07;1.30;;;16.30;79.40;;;;;;4897994;29;20035;-70
2022/08/20 02:57:43;;;;;;;5.43;1.40;;;16.30;79.90;;;;;;4897684;29;20112;-75
2022/08/20 03:00:21;;;;;;;5.25;1.88;;;16.30;79.20;;;;;;4897457;29;20041;-71
2022/08/20 03:02:49;;;;;;;5.95;2.05;;;16.30;79.50;;;;;;4896226;29;20108;-72
2022/08/20 03:05:16;;;;;;;3.85;2.00;;;16.40;80.30;;;;;;4879652;29;20025;-76
2022/08/20 03:07:49;;;;;;;6.43;1.20;;;16.50;80.40;;;;;;4883074;29;20039;-77
2022/08/20 03:10:15;;;;;;;;;;;16.60;79.30;;;;;;4898367;29;20083;-72
2022/08/20 03:12:43;;;;;;;3.38;1.05;;;16.70;79.30;;;;;;4897677;29;19911;-78
2022/08/20 03:15:11;;;;;;;4.30;1.40;;;16.80;78.90;;;;;;4898280;29;20032;-76
2022/08/20 03:17:38;;;;;;;6.07;1.83;;;16.90;79.10;;;;;;4897637;29;20020;-76
2022/08/20 03:20:08;;;;;;;6.30;2.05;;;17.00;78.40;;;;;;4896496;29;20572;-72
2022/08/20 03:22:35;;;;;;;4.72;1.02;;;16.90;78.20;;;;;;4896529;29;20033;-73
2022/08/20 03:25:04;;;;;;;4.75;1.05;;;16.80;78.80;;;;;;4896411;29;20025;-75
2022/08/20 03:27:31;;;;;;;6.43;1.35;;;16.70;79.50;;;;;;4910768;29;20024;-75
2022/08/20 03:29:59;;;;;;;4.40;0.80;;;16.70;79.30;;;;;;4896832;29;20060;-75
2022/08/20 03:32:26;;;;;;;6.75;1.27;;;16.60;79.40;;;;;;4896841;29;20025;-72
2022/08/20 03:34:53;;;;;;;3.17;1.20;;;16.50;79.60;;;;;;4897597;29;20033;-69
2022/08/20 03:37:21;;;;;;;4.38;1.10;;;16.50;79.30;;;;;;4897951;29;20072;-75
2022/08/20 03:39:49;;;;;;;6.45;1.45;;;16.40;79.10;;;;;;4897559;29;20104;-74
2022/08/20 03:42:16;;;;;;;2.40;1.17;;;16.50;79.60;;;;;;4897435;29;20020;-71
2022/08/20 03:44:43;;;;;;;3.40;1.45;;;16.50;80.10;;;;;;4897778;29;20389;-70
2022/08/20 03:47:11;;;;;;;3.83;1.33;;;16.50;78.50;;;;;;4897483;29;20469;-70
2022/08/20 03:49:38;;;;;;;3.13;1.27;;;16.50;79.50;;;;;;4897980;29;20080;-72
2022/08/20 03:52:06;;;;;;;5.72;1.33;;;16.50;79.70;;;;;;4897540;29;20541;-70
2022/08/20 03:54:33;;;;;;;6.05;1.77;;;16.50;79.60;;;;;;4897415;29;20393;-70
2022/08/20 03:57:01;;;;;;;3.63;1.42;;;16.50;79.50;;;;;;4896720;29;20453;-70
2022/08/20 03:59:32;;;;;;;2.78;0.90;;;16.60;79.20;;;;;;4896817;29;20052;-70
2022/08/20 04:02:00;;;;;;;3.03;1.25;;;16.60;79.30;;;;;;4895417;29;20068;-68
2022/08/20 04:04:27;;;;;;;8.45;1.75;;;16.70;80.10;;;;;;4896455;29;20536;-69
2022/08/20 04:06:55;;;;;;;6.18;1.42;;;16.90;79.70;;;;;;4896960;29;20043;-69
2022/08/20 04:09:22;;;;;;;3.72;1.00;;;16.90;79.30;;;;;;4897041;29;20036;-69
2022/08/20 04:11:49;;;;;;;3.92;1.15;;;16.90;78.60;;;;;;4895604;29;20017;-69
2022/08/20 04:14:17;;;;;;;2.67;1.30;;;16.90;79.20;;;;;;4896014;29;20605;-71
2022/08/20 04:16:45;;;;;;;3.40;1.00;;;16.80;79.60;;;;;;4894066;29;20044;-69
2022/08/20 04:19:12;;;;;;;5.05;2.20;;;16.80;79.00;;;;;;4894702;29;20634;-69
2022/08/20 04:21:40;;;;;;;4.95;1.65;;;16.90;79.20;;;;;;4895093;29;20171;-72
2022/08/20 04:24:07;;;;;;;4.47;1.40;;;16.80;78.90;;;;;;4895858;29;20064;-69
2022/08/20 04:26:36;;;;;;;5.13;1.50;;;17.00;79.80;;;;;;4897088;29;20107;-73
2022/08/20 04:29:04;;;;;;;5.32;1.67;;;17.20;79.30;;;;;;4897101;29;20108;-71
2022/08/20 04:31:34;;;;;;;5.53;1.58;;;17.40;79.00;;;;;;4896536;29;20059;-69
2022/08/20 04:34:06;;;;;;;3.65;1.23;;;17.70;78.60;;;;;;4896800;29;20056;-69
2022/08/20 04:36:34;;;;;;;5.07;1.20;;;18.10;78.40;;;;;;4896851;29;20069;-69
2022/08/20 04:39:01;;;;;;;4.63;1.50;;;18.70;77.20;;;;;;4896915;29;20039;-69
2022/08/20 04:41:29;;;;;;;5.50;1.40;;;19.00;75.40;;;;;;4896327;29;20032;-70
2022/08/20 04:43:57;;;;;;;6.55;1.67;;;19.40;75.20;;;;;;4894658;29;20020;-70
2022/08/20 04:46:27;;;;;;;4.13;1.33;;;20.30;74.20;;;;;;4893314;29;20025;-69
2022/08/20 04:48:56;;;;;;;5.57;1.63;;;20.80;72.20;;;;;;4894972;29;20474;-68
2022/08/20 04:51:24;;;;;;;7.57;1.50;;;21.40;70.90;;;;;;4895305;29;20040;-69
2022/08/20 04:53:53;;;;;;;4.38;1.42;;;22.40;70.20;;;;;;4894890;29;20020;-68
2022/08/20 04:56:24;;;;;;;7.00;1.63;;;23.40;68.10;;;;;;4895062;29;20032;-70
2022/08/20 04:58:54;;;;;;;5.65;1.45;;;24.00;66.10;;;;;;4894674;29;20059;-68
2022/08/20 05:01:24;;;;;;;4.97;1.42;;;24.40;64.50;;;;;;4895413;29;20441;-70
2022/08/20 05:03:54;;;;;;;3.40;0.90;;;24.60;64.10;;;;;;4892728;29;20415;-72
2022/08/20 05:06:24;;;;;;;5.03;1.45;;;23.90;64.50;;;;;;4895127;29;20017;-71
2022/08/20 05:08:52;;;;;;;5.55;1.20;;;23.40;64.90;;;;;;4906368;29;20113;-72
2022/08/20 05:11:20;;;;;;;3.67;1.45;;;23.00;66.30;;;;;;4895320;29;20373;-71
2022/08/20 05:13:49;;;;;;;4.82;1.33;;;22.00;67.20;;;;;;4895661;29;20453;-68
2022/08/20 05:16:16;;;;;;;4.53;1.35;;;21.50;69.50;;;;;;4894761;29;20439;-67
2022/08/20 05:18:45;;;;;;;2.88;0.93;;;21.60;69.30;;;;;;4896224;29;20516;-69
2022/08/20 05:21:12;;;;;;;3.60;1.67;;;21.20;69.60;;;;;;4896689;29;20029;-69
2022/08/20 05:23:41;;;;;;;4.40;1.25;;;21.00;70.20;;;;;;4896121;29;20024;-69
2022/08/20 05:26:14;;;;;;;3.30;1.35;;;21.10;70.30;;;;;;4899454;29;20421;-69
2022/08/20 05:28:42;;;;;;;2.55;0.80;;;21.00;69.70;;;;;;4899826;29;20061;-74
2022/08/20 05:31:09;;;;;;;4.05;1.15;;;20.80;70.20;;;;;;4900180;29;20597;-70
2022/08/20 05:33:38;;;;;;;3.15;1.13;;;21.00;71.10;;;;;;4900007;29;20503;-69
2022/08/20 05:36:07;;;;;;;4.68;1.45;;;21.50;71.80;;;;;;4899318;29;20554;-68
2022/08/20 05:38:35;;;;;;;3.55;1.15;;;22.30;68.80;;;;;;4899426;29;20032;-72
2022/08/20 05:41:03;;;;;;;4.53;1.20;;;23.20;68.50;;;;;;4899811;29;20025;-68
2022/08/20 05:43:32;;;;;;;4.50;1.20;;;23.80;67.30;;;;;;4899791;29;20052;-69
2022/08/20 05:46:01;;;;;;;3.63;0.98;;;24.40;65.60;;;;;;4898985;29;20024;-68
2022/08/20 05:48:28;;;;;;;2.97;0.77;;;24.70;64.60;;;;;;4898670;29;20021;-69
2022/08/20 05:50:57;;;;;;;5.05;1.60;;;24.70;64.70;;;;;;4899125;29;20020;-68
2022/08/20 05:53:25;;;;;;;3.92;1.30;;;24.50;63.90;;;;;;4899342;29;20059;-76
2022/08/20 05:55:53;;;;;;;5.57;1.52;;;24.40;64.20;;;;;;4898516;29;20723;-77
2022/08/20 05:58:28;;;;;;;2.85;1.35;;;24.60;64.70;;;;;;4898851;29;20493;-77
2022/08/20 06:00:55;;;;;;;3.50;1.25;;;24.80;64.40;;;;;;4899004;29;20104;-75
2022/08/20 06:06:08;;;;;;;1.48;0.90;;;25.60;62.30;;;;;;4899631;29;20112;-75
2022/08/20 06:08:36;;;;;;;4.10;0.88;;;25.50;62.60;;;;;;4898658;29;20501;-75
2022/08/20 06:11:03;;;;;;;5.13;1.30;;;25.50;63.30;;;;;;4897710;29;20076;-75
2022/08/20 06:13:31;;;;;;;2.58;1.27;;;25.50;62.60;;;;;;4897935;29;20087;-73
2022/08/20 06:15:58;;;;;;;5.32;1.40;;;24.70;63.00;;;;;;4897623;29;20043;-73
2022/08/20 06:18:26;;;;;;;3.35;0.90;;;24.70;63.40;;;;;;4897558;29;20059;-71
2022/08/20 06:20:53;;;;;;;4.90;1.35;;;24.60;63.10;;;;;;4897750;29;20438;-69
2022/08/20 06:23:24;;;;;;;3.25;0.80;;;24.60;62.60;;;;;;4897589;29;20029;-72
2022/08/20 06:25:51;;;;;;;4.63;1.13;;;24.40;63.90;;;;;;4897550;29;20028;-69
2022/08/20 06:28:19;;;;;;;3.90;0.70;;;24.40;63.90;;;;;;4895184;29;20024;-71
2022/08/20 06:30:46;;;;;;;6.10;1.38;;;24.10;63.30;;;;;;4897546;29;20481;-72
2022/08/20 06:33:13;;;;;;;5.38;1.08;;;23.90;64.60;;;;;;4895683;29;20032;-70
2022/08/20 06:35:43;;;;;;;7.38;1.10;;;23.80;64.30;;;;;;4897054;29;20032;-69
2022/08/20 06:38:11;;;;;;;3.75;1.17;;;23.70;64.60;;;;;;4897371;29;20470;-68
2022/08/20 06:40:39;;;;;;;3.95;1.08;;;23.60;65.20;;;;;;4898235;29;20490;-68
2022/08/20 06:43:07;;;;;;;5.00;1.67;;;23.60;65.00;;;;;;4897614;29;20028;-70
2022/08/20 06:45:36;;;;;;;4.28;1.48;;;23.60;65.30;;;;;;4897844;29;20031;-68
2022/08/20 06:48:08;;;;;;;4.90;0.90;;;23.60;66.00;;;;;;4897389;29;20032;-69
2022/08/20 06:50:40;;;;;;;5.78;1.33;;;23.40;65.70;;;;;;4896008;29;20128;-71
2022/08/20 06:53:09;;;;;;;2.40;0.90;;;23.00;66.60;;;;;;4894908;29;20060;-68
2022/08/20 06:55:39;;;;;;;3.15;1.30;;;22.50;67.60;;;;;;4897428;29;20115;-68
2022/08/20 06:58:09;;;;;;;3.55;1.15;;;21.90;68.50;;;;;;4897786;29;20072;-69
2022/08/20 07:00:39;;;;;;;4.93;1.20;;;21.40;69.50;;;;;;4898303;29;20086;-69
2022/08/20 07:03:07;;;;;;;6.35;1.70;;;20.90;70.60;;;;;;4898391;29;20390;-67
2022/08/20 07:05:40;;;;;;;5.45;1.20;;;20.50;71.80;;;;;;4898048;29;20388;-69
2022/08/20 07:08:10;;;;;;;7.50;1.55;;;20.00;73.10;;;;;;4897780;29;20032;-69
2022/08/20 07:10:38;;;;;;;4.15;1.90;;;19.70;73.40;;;;;;4897043;29;20043;-70
2022/08/20 07:13:05;;;;;;;6.38;1.88;;;19.30;74.50;;;;;;4896334;29;20052;-68
2022/08/20 07:15:32;;;;;;;5.50;1.60;;;19.00;75.10;;;;;;4897084;29;20088;-68
2022/08/20 07:18:02;;;;;;;3.72;1.88;;;18.80;76.00;;;;;;4897993;29;20035;-71
2022/08/20 07:20:32;;;;;;;3.53;1.20;;;18.70;76.40;;;;;;4897101;29;20032;-70
2022/08/20 07:23:00;;;;;;;5.25;1.02;;;18.40;76.40;;;;;;4897635;29;20651;-70
2022/08/20 07:25:30;;;;;;;4.45;1.25;;;18.30;76.90;;;;;;4898177;29;20036;-71
2022/08/20 07:28:04;;;;;;;4.05;1.08;;;18.10;76.90;;;;;;4896678;29;20020;-69
2022/08/20 07:33:18;;;;;;;3.90;1.20;;;17.90;77.30;;;;;;4909952;29;20092;-69
2022/08/20 07:35:47;;;;;;;4.40;1.60;;;17.70;77.90;;;;;;4897050;29;20067;-70
2022/08/20 07:38:23;;;;;;;2.33;0.80;;;17.60;78.00;;;;;;4896415;29;20028;-72
2022/08/20 07:40:53;;;;;;;2.15;0.80;;;17.50;78.20;;;;;;4896691;29;20024;-70
2022/08/20 07:43:22;;;;;;;2.35;0.80;;;17.40;78.60;;;;;;4896716;29;20041;-72
2022/08/20 07:45:56;;;;;;;2.75;0.85;;;17.30;78.40;;;;;;4895127;29;20024;-70
2022/08/20 07:48:33;;;;;;;1.50;0.75;;;17.20;78.60;;;;;;4896161;29;20315;-71
2022/08/20 07:51:03;;;;;;;1.23;0.80;;;17.20;79.10;;;;;;4897050;29;20028;-70
2022/08/20 07:53:32;;;;;;;1.88;0.85;;;17.10;79.10;;;;;;4897353;29;20025;-70
2022/08/20 07:56:02;;;;;;;1.52;0.70;;;17.10;79.40;;;;;;4897315;29;20032;-69
2022/08/20 07:58:29;;;;;;;1.48;0.80;;;17.00;79.90;;;;;;4896091;29;20135;-69
2022/08/20 08:00:56;;;;;;;1.67;0.80;;;17.00;79.80;;;;;;4897609;29;20032;-69
2022/08/20 08:03:25;;;;;;;1.27;0.68;;;16.90;80.30;;;;;;4897408;29;20118;-73
2022/08/20 08:05:52;;;;;;;0.90;0.68;;;16.80;80.40;;;;;;4897438;29;20399;-71
2022/08/20 08:08:25;;;;;;;1.38;0.80;;;16.80;80.80;;;;;;4897706;29;20037;-72
2022/08/20 08:10:57;;;;;;;3.20;0.80;;;16.70;81.00;;;;;;4897730;29;20057;-71
2022/08/20 08:13:26;;;;;;;1.88;1.10;;;16.60;81.30;;;;;;4897629;29;20111;-70
2022/08/20 08:15:56;;;;;;;2.72;1.17;;;16.60;81.90;;;;;;4896887;29;20037;-70
2022/08/20 08:18:27;;;;;;;2.50;0.82;;;16.50;82.70;;;;;;4897135;29;20021;-70
2022/08/20 08:20:55;;;;;;;1.98;0.85;;;16.50;82.10;;;;;;4897369;29;20096;-70
2022/08/20 08:23:24;;;;;;;2.40;1.10;;;16.40;82.40;;;;;;4897585;29;20025;-74
2022/08/20 08:25:51;;;;;;;1.63;0.98;;;16.30;82.80;;;;;;4897203;29;20168;-71
2022/08/20 08:28:19;;;;;;;2.33;1.00;;;16.30;83.20;;;;;;4897242;29;20029;-69
2022/08/20 08:30:48;;;;;;;3.72;1.40;;;16.20;83.30;;;;;;4897053;29;20025;-70
2022/08/20 08:33:29;;;;;;;2.88;1.50;;;16.10;83.60;;;;;;4897090;29;20035;-70
2022/08/20 08:36:11;;;;;;;1.70;0.95;;;16.10;84.10;;;;;;4897036;29;20032;-73
2022/08/20 08:38:43;;;;;;;3.35;1.45;;;16.00;84.10;;;;;;4897081;29;20076;-74
2022/08/20 08:41:35;;;;;;;1.95;1.23;;;16.00;84.60;;;;;;4896923;29;20502;-72
2022/08/20 08:44:03;;;;;;;;;;;15.90;84.90;;;;;;4897173;29;20028;-75
2022/08/20 08:46:40;;;;;;;2.78;1.90;;;15.80;85.20;;;;;;4896680;29;19911;-75
2022/08/20 08:49:12;;;;;;;2.58;1.80;;;15.80;85.70;;;;;;4897077;29;20016;-70
2022/08/20 08:51:48;;;;;;;4.68;1.90;;;15.70;86.10;;;;;;4896557;29;20084;-74
2022/08/20 08:54:19;;;;;;;3.53;2.00;;;15.60;86.50;;;;;;4896234;29;20124;-75
2022/08/20 08:56:46;;;;;;;3.15;1.52;;;15.60;87.00;;;;;;4896999;29;20107;-74
2022/08/20 08:59:14;;;;;;;4.65;2.22;;;15.50;87.00;;;;;;4895989;29;20127;-73
2022/08/20 09:01:51;;;;;;;4.00;2.08;;;15.50;87.50;;;;;;4896228;29;20056;-73
2022/08/20 09:04:20;;;;;;;3.42;2.10;;;15.50;87.60;;;;;;4896374;29;20254;-70
2022/08/20 09:06:52;;;;;;;2.65;2.17;;;15.50;87.60;;;;;;4896594;29;20060;-70
2022/08/20 09:09:29;;;;;;;3.25;2.00;;;15.40;87.90;;;;;;4897053;29;20025;-73
2022/08/20 09:12:08;;;;;;;4.85;2.08;;;15.40;88.50;;;;;;4896463;29;20354;-71
2022/08/20 09:14:36;;;;;;;3.85;2.22;;;15.30;88.30;;;;;;4896523;29;20047;-71
2022/08/20 09:17:04;;;;;;;4.22;2.67;;;15.30;88.50;;;;;;4896568;29;20035;-71
2022/08/20 09:19:32;;;;;;;2.83;2.33;;;15.20;89.10;;;;;;4896624;29;20089;-69
2022/08/20 09:22:05;;;;;;;3.80;2.10;;;15.20;88.90;;;;;;4896296;29;20430;-70
2022/08/20 09:24:33;;;;;;;3.50;1.70;;;15.20;89.10;;;;;;4896371;29;20021;-68
2022/08/20 09:27:00;;;;;;;2.85;1.63;;;15.20;89.00;;;;;;4897307;29;20914;-68
2022/08/20 09:29:28;;;;;;;2.15;1.20;;;15.20;89.30;;;;;;4896596;29;20032;-68
2022/08/20 09:32:18;;;;;;;2.25;1.33;;;15.10;89.40;;;;;;4896550;29;20097;-70
2022/08/20 09:34:54;;;;;;;1.67;1.10;;;15.10;89.90;;;;;;4896374;29;20036;-68
2022/08/20 09:37:24;;;;;;;2.63;1.02;;;15.00;89.70;;;;;;4895997;29;20032;-68
2022/08/20 09:39:51;;;;;;;1.92;1.08;;;14.90;90.00;;;;;;4896127;29;20433;-70
2022/08/20 09:42:25;;;;;;;1.67;1.00;;;14.90;90.10;;;;;;4896326;29;20115;-68
2022/08/20 09:44:53;;;;;;;3.88;0.80;;;14.90;90.20;;;;;;4896163;29;20067;-69
2022/08/20 09:47:21;;;;;;;1.83;0.80;;;14.80;90.20;;;;;;4895790;29;20482;-71
2022/08/20 09:49:49;;;;;;;2.33;1.08;;;14.90;90.20;;;;;;4895315;29;20025;-69
2022/08/20 09:52:26;;;;;;;2.85;1.13;;;14.90;90.40;;;;;;4895661;29;20469;-71
2022/08/20 09:55:10;;;;;;;1.38;1.13;;;14.80;90.50;;;;;;4895568;29;20036;-72
2022/08/20 09:57:37;;;;;;;1.95;1.20;;;14.80;90.60;;;;;;4896154;29;20417;-70
2022/08/20 10:00:07;;;;;;;5.00;1.70;;;14.70;90.70;;;;;;4896077;29;20033;-69
2022/08/20 10:02:35;;;;;;;3.22;1.55;;;14.60;90.80;;;;;;4896076;29;20024;-68
2022/08/20 10:05:02;;;;;;;6.55;2.25;;;14.70;90.90;;;;;;4896043;29;20025;-69
2022/08/20 10:07:30;;;;;;;3.22;1.63;;;14.60;91.00;;;;;;4896098;29;20474;-69
2022/08/20 10:09:57;;;;;;;2.47;1.20;;;14.50;91.10;;;;;;4895971;29;20501;-69
2022/08/20 10:12:24;;;;;;;3.67;1.58;;;14.40;91.30;;;;;;4897636;29;20084;-71
2022/08/20 10:14:51;;;;;;;3.45;1.60;;;14.40;91.40;;;;;;4899312;29;20047;-69
2022/08/20 10:17:18;;;;;;;3.08;1.33;;;14.40;91.50;;;;;;4899331;29;20021;-71
2022/08/20 10:19:46;;;;;;;3.65;1.38;;;14.40;91.60;;;;;;4897702;29;20119;-72
2022/08/20 10:22:13;;;;;;;2.85;1.50;;;14.40;91.80;;;;;;4899328;29;20016;-71
2022/08/20 10:24:40;;;;;;;2.05;1.20;;;14.30;92.00;;;;;;4899555;29;20024;-70
2022/08/20 10:27:08;;;;;;;2.00;1.20;;;14.30;92.20;;;;;;4898842;29;20033;-68
2022/08/20 10:29:35;;;;;;;2.15;1.17;;;14.20;92.30;;;;;;4899471;29;20029;-68
2022/08/20 10:32:14;;;;;;;4.88;1.65;;;14.10;92.60;;;;;;4898147;29;20028;-68
2022/08/20 10:34:43;;;;;;;4.82;3.70;;;14.10;92.80;;;;;;4899774;29;20028;-70
2022/08/20 10:37:16;;;;;;;4.72;3.20;;;14.10;92.70;;;;;;4899981;29;20032;-70
2022/08/20 10:39:44;;;;;;;4.82;2.80;;;14.00;92.90;;;;;;4899815;29;20025;-68
2022/08/20 10:42:12;;;;;;;4.10;2.42;;;14.00;93.00;;;;;;4899161;29;20629;-71
2022/08/20 10:44:39;;;;;;;5.28;2.58;;;13.90;92.90;;;;;;4898877;29;20032;-72
2022/08/20 10:47:20;;;;;;;3.80;3.08;;;13.90;93.20;;;;;;4898382;29;20023;-70
2022/08/20 10:49:51;;;;;;;6.65;4.38;;;13.90;93.30;;;;;;4898568;29;20031;-73
2022/08/20 10:52:20;;;;;;;6.88;3.50;;;13.80;93.40;;;;;;4898920;29;20028;-70
2022/08/20 10:54:47;;;;;;;4.50;3.20;;;13.80;93.50;;;;;;4898777;29;20065;-71
2022/08/20 10:57:22;;;;;;;3.95;3.13;;;13.70;93.50;;;;;;4898941;29;20016;-68
2022/08/20 10:59:51;;;;;;;4.75;2.88;;;13.70;93.80;;;;;;4898956;29;20156;-69
2022/08/20 11:02:19;;;;;;;3.45;2.03;;;13.60;93.90;;;;;;4899046;29;20033;-71
2022/08/20 11:04:47;;;;;;;3.55;1.95;;;13.70;94.00;;;;;;4899100;29;20036;-75
2022/08/20 11:07:35;;;;;;;2.78;1.50;;;13.60;94.10;;;;;;4899053;29;20153;-73
2022/08/20 11:10:05;;;;;;;3.92;2.03;;;13.60;94.00;;;;;;4898866;29;20039;-74
2022/08/20 11:12:33;;;;;;;3.90;2.08;;;13.60;94.00;;;;;;4898942;29;20025;-69
2022/08/20 11:15:00;;;;;;;3.40;2.10;;;13.60;94.10;;;;;;4898529;29;20041;-68
2022/08/20 11:17:31;;;;;;;4.03;2.38;;;13.50;94.00;;;;;;4898865;29;20024;-68
2022/08/20 11:20:00;;;;;;;3.80;2.00;;;13.50;94.00;;;;;;4898544;29;20021;-74
2022/08/20 11:22:28;;;;;;;4.72;2.60;;;13.60;94.20;;;;;;4897840;29;20063;-76
2022/08/20 11:24:55;;;;;;;2.83;2.15;;;13.60;94.30;;;;;;4897967;29;20029;-75
2022/08/20 11:27:35;;;;;;;4.38;1.92;;;13.60;94.30;;;;;;4898602;29;20017;-75
2022/08/20 11:30:05;;;;;;;4.18;1.90;;;13.70;94.50;;;;;;4898420;29;20062;-74
2022/08/20 11:32:32;;;;;;;2.33;1.40;;;13.70;94.80;;;;;;4897903;29;20020;-72
2022/08/20 11:35:00;;;;;;;4.57;1.52;;;13.80;95.30;;;;;;4897909;29;20047;-75
2022/08/20 11:37:27;;;;;;;4.60;1.38;;;13.80;95.80;;;;;;4898339;29;20036;-75
2022/08/20 11:39:54;;;;;;;4.60;1.58;;;13.80;96.40;;;;;;4898366;29;20036;-73
2022/08/20 11:42:22;;;;;;;4.90;1.60;;;13.80;96.80;;;;;;4898059;29;20020;-71
2022/08/20 11:44:49;;;;;;;8.27;3.55;;;13.70;97.20;;;;;;4898038;29;20029;-71
2022/08/20 11:47:28;;;;;;;5.43;1.77;;;13.70;97.40;;;;;;4897866;29;20079;-72
2022/08/20 11:50:01;;;;;;;5.80;2.72;;;13.70;97.80;;;;;;4898073;29;20025;-74
2022/08/20 11:52:30;;;;;;;6.38;2.38;;;13.70;98.20;;;;;;4898146;29;20024;-73
2022/08/20 11:54:58;;;;;;;6.07;1.77;;;13.80;98.50;;;;;;4897712;29;20119;-71
2022/08/20 11:57:28;;;;;;;8.00;1.80;;;13.80;98.70;;;;;;4897344;29;20088;-72
2022/08/20 11:59:57;;;;;;;3.70;1.23;;;13.90;98.80;;;;;;4897687;29;20064;-69
2022/08/20 12:02:25;;;;;;;4.60;1.35;;;13.90;98.80;;;;;;4897824;29;20482;-72
2022/08/20 12:04:52;;;;;;;5.60;1.65;;;13.90;98.90;;;;;;4897589;29;20033;-70
2022/08/20 12:07:22;;;;;;;3.63;1.08;;;13.90;98.80;;;;;;4897423;29;20039;-75
2022/08/20 12:09:50;;;;;;;3.88;1.55;;;13.90;98.70;;;;;;4897214;29;20031;-69
2022/08/20 12:12:21;;;;;;;3.33;0.88;;;13.90;98.50;;;;;;4897618;29;20024;-69
2022/08/20 12:14:48;;;;;;;2.42;0.65;;;13.80;98.40;;;;;;4897547;29;20041;-69
2022/08/20 12:17:20;;;;;;;6.28;2.15;;;13.90;98.20;;;;;;4895832;29;20076;-70
2022/08/20 12:19:47;;;;;;;2.28;1.27;;;13.90;98.20;;;;;;4897188;29;20036;-70
2022/08/20 12:22:15;;;;;;;3.30;1.10;;;13.80;98.10;;;;;;4897052;29;20029;-68
2022/08/20 12:24:42;;;;;;;6.90;0.98;;;13.80;98.00;;;;;;4897083;29;20041;-68
2022/08/20 12:27:18;;;;;;;5.55;0.80;;;13.80;98.10;;;;;;4897510;29;20041;-68
2022/08/20 12:29:47;;;;;;;4.30;1.10;;;13.80;98.10;;;;;;4897468;29;20029;-69
2022/08/20 12:32:15;;;;;;;4.30;0.80;;;13.70;98.10;;;;;;4897458;29;20021;-69
2022/08/20 12:34:43;;;;;;;3.15;1.10;;;13.70;98.30;;;;;;4896412;29;20115;-69
2022/08/20 12:37:15;;;;;;;4.00;1.20;;;13.70;98.30;;;;;;4897165;29;20369;-70
2022/08/20 12:39:46;;;;;;;4.47;1.08;;;13.60;98.40;;;;;;4897012;29;20118;-70
2022/08/20 12:42:14;;;;;;;3.88;1.58;;;13.60;98.50;;;;;;4896908;29;20107;-69
2022/08/20 12:44:42;;;;;;;7.82;1.75;;;13.50;98.70;;;;;;4895405;29;20384;-70
2022/08/20 12:47:10;;;;;;;3.40;1.42;;;13.50;98.80;;;;;;4897013;29;20480;-72
2022/08/20 12:49:40;;;;;;;3.50;1.15;;;13.50;98.80;;;;;;4896906;29;20048;-70
2022/08/20 12:52:08;;;;;;;4.18;1.42;;;13.50;98.80;;;;;;4896915;29;20039;-68
2022/08/20 12:54:36;;;;;;;4.43;1.10;;;13.50;99.00;;;;;;4896585;29;20072;-69
2022/08/20 12:57:04;;;;;;;3.30;1.05;;;13.50;99.00;;;;;;4896569;29;20033;-68
2022/08/20 12:59:31;;;;;;;3.13;0.80;;;13.50;99.10;;;;;;4896531;29;20060;-67
2022/08/20 13:01:59;;;;;;;4.43;1.70;;;13.50;99.20;;;;;;4896853;29;20032;-68
2022/08/20 13:04:26;;;;;;;4.82;1.48;;;13.50;99.20;;;;;;4895243;29;20028;-70
2022/08/20 13:06:59;;;;;;;6.55;1.42;;;13.50;99.20;;;;;;4895338;29;20028;-67